sensor_id;sensor_type;location;lat;lon;timestamp;temperature;humidity
15296;DHT22;7749;49.964;7.890;2022-08-05T00:00:16;24.90;1.00
15296;DHT22;7749;49.964;7.890;2022-08-05T00:02:46;24.70;27.10
15296;DHT22;7749;49.964;7.890;2022-08-05T00:05:19;24.70;62.90
15296;DHT22;7749;49.964;7.890;2022-08-05T00:08:07;24.40;84.10
15296;DHT22;7749;49.964;7.890;2022-08-05T00:10:57;24.00;99.90
15296;DHT22;7749;49.964;7.890;2022-08-05T00:13:32;23.80;99.90
15296;DHT22;7749;49.964;7.890;2022-08-05T00:16:08;23.70;99.90
15296;DHT22;7749;49.964;7.890;2022-08-05T00:18:44;23.50;99.90
15296;DHT22;7749;49.964;7.890;2022-08-05T00:21:13;23.40;99.90
15296;DHT22;7749;49.964;7.890;2022-08-05T00:23:43;23.20;99.90
15296;DHT22;7749;49.964;7.890;2022-08-05T00:26:31;23.40;99.90
15296;DHT22;7749;49.964;7.890;2022-08-05T00:28:58;23.20;99.90
15296;DHT22;7749;49.964;7.890;2022-08-05T00:31:26;23.00;99.90
15296;DHT22;7749;49.964;7.890;2022-08-05T00:34:13;22.90;99.90
15296;DHT22;7749;49.964;7.890;2022-08-05T00:37:01;22.90;99.90
15296;DHT22;7749;49.964;7.890;2022-08-05T00:39:40;23.00;99.90
15296;DHT22;7749;49.964;7.890;2022-08-05T00:42:33;23.30;99.90
15296;DHT22;7749;49.964;7.890;2022-08-05T00:45:03;23.50;99.90
15296;DHT22;7749;49.964;7.890;2022-08-05T00:47:35;23.60;99.90
15296;DHT22;7749;49.964;7.890;2022-08-05T00:50:22;23.50;99.90
15296;DHT22;7749;49.964;7.890;2022-08-05T00:52:52;23.00;99.90
15296;DHT22;7749;49.964;7.890;2022-08-05T00:55:22;22.70;99.90
15296;DHT22;7749;49.964;7.890;2022-08-05T00:58:11;22.70;99.90
15296;DHT22;7749;49.964;7.890;2022-08-05T01:00:40;22.70;99.90
15296;DHT22;7749;49.964;7.890;2022-08-05T01:03:09;22.60;99.90
15296;DHT22;7749;49.964;7.890;2022-08-05T01:05:52;22.70;99.90
15296;DHT22;7749;49.964;7.890;2022-08-05T01:08:22;22.80;99.90
15296;DHT22;7749;49.964;7.890;2022-08-05T01:11:26;22.70;99.90
15296;DHT22;7749;49.964;7.890;2022-08-05T01:14:19;22.70;99.90
15296;DHT22;7749;49.964;7.890;2022-08-05T01:17:10;22.70;99.90
15296;DHT22;7749;49.964;7.890;2022-08-05T01:31:11;22.60;99.90
15296;DHT22;7749;49.964;7.890;2022-08-05T01:33:45;22.60;99.90
15296;DHT22;7749;49.964;7.890;2022-08-05T01:36:19;22.40;99.90
15296;DHT22;7749;49.964;7.890;2022-08-05T01:38:55;22.40;99.90
15296;DHT22;7749;49.964;7.890;2022-08-05T01:41:30;22.40;99.90
15296;DHT22;7749;49.964;7.890;2022-08-05T01:44:00;22.40;99.90
15296;DHT22;7749;49.964;7.890;2022-08-05T01:46:30;22.40;99.90
15296;DHT22;7749;49.964;7.890;2022-08-05T01:49:17;22.50;99.90
15296;DHT22;7749;49.964;7.890;2022-08-05T01:51:55;22.50;99.90
15296;DHT22;7749;49.964;7.890;2022-08-05T01:54:38;22.60;99.90
15296;DHT22;7749;49.964;7.890;2022-08-05T01:57:15;22.60;99.90
15296;DHT22;7749;49.964;7.890;2022-08-05T02:00:06;22.70;99.90
15296;DHT22;7749;49.964;7.890;2022-08-05T02:02:44;22.80;99.90
15296;DHT22;7749;49.964;7.890;2022-08-05T02:05:27;22.80;99.90
15296;DHT22;7749;49.964;7.890;2022-08-05T02:08:00;22.80;99.90
15296;DHT22;7749;49.964;7.890;2022-08-05T02:10:33;22.70;99.90
15296;DHT22;7749;49.964;7.890;2022-08-05T02:13:22;22.60;99.90
15296;DHT22;7749;49.964;7.890;2022-08-05T02:16:28;22.60;99.90
15296;DHT22;7749;49.964;7.890;2022-08-05T02:19:13;22.70;99.90
15296;DHT22;7749;49.964;7.890;2022-08-05T02:22:01;22.80;99.90
15296;DHT22;7749;49.964;7.890;2022-08-05T02:24:37;22.80;99.90
15296;DHT22;7749;49.964;7.890;2022-08-05T02:27:09;22.80;99.90
15296;DHT22;7749;49.964;7.890;2022-08-05T02:29:40;22.90;99.90
15296;DHT22;7749;49.964;7.890;2022-08-05T02:32:28;22.90;99.90
15296;DHT22;7749;49.964;7.890;2022-08-05T02:35:02;23.00;99.90
15296;DHT22;7749;49.964;7.890;2022-08-05T02:37:42;23.00;99.90
15296;DHT22;7749;49.964;7.890;2022-08-05T02:40:20;23.00;99.90
15296;DHT22;7749;49.964;7.890;2022-08-05T02:42:51;23.00;99.90
15296;DHT22;7749;49.964;7.890;2022-08-05T02:45:22;23.10;99.90
15296;DHT22;7749;49.964;7.890;2022-08-05T02:47:53;23.10;99.90
15296;DHT22;7749;49.964;7.890;2022-08-05T02:50:40;23.20;99.90
15296;DHT22;7749;49.964;7.890;2022-08-05T02:53:15;23.10;99.90
15296;DHT22;7749;49.964;7.890;2022-08-05T02:55:47;23.10;99.90
15296;DHT22;7749;49.964;7.890;2022-08-05T02:58:22;23.10;99.90
15296;DHT22;7749;49.964;7.890;2022-08-05T03:00:55;23.30;99.90
15296;DHT22;7749;49.964;7.890;2022-08-05T03:03:24;23.30;99.90
15296;DHT22;7749;49.964;7.890;2022-08-05T03:05:53;23.30;99.90
15296;DHT22;7749;49.964;7.890;2022-08-05T03:08:41;22.90;99.90
15296;DHT22;7749;49.964;7.890;2022-08-05T03:11:19;22.80;99.90
15296;DHT22;7749;49.964;7.890;2022-08-05T03:14:08;22.80;99.90
15296;DHT22;7749;49.964;7.890;2022-08-05T03:16:40;22.90;99.90
15296;DHT22;7749;49.964;7.890;2022-08-05T03:19:18;23.00;99.90
15296;DHT22;7749;49.964;7.890;2022-08-05T03:22:01;23.10;99.90
15296;DHT22;7749;49.964;7.890;2022-08-05T03:24:31;23.10;99.90
15296;DHT22;7749;49.964;7.890;2022-08-05T03:27:01;23.20;99.90
15296;DHT22;7749;49.964;7.890;2022-08-05T03:29:33;23.20;99.90
15296;DHT22;7749;49.964;7.890;2022-08-05T03:32:21;23.10;99.90
15296;DHT22;7749;49.964;7.890;2022-08-05T03:34:58;23.10;99.90
15296;DHT22;7749;49.964;7.890;2022-08-05T03:37:27;23.10;99.90
15296;DHT22;7749;49.964;7.890;2022-08-05T03:40:07;23.00;99.90
15296;DHT22;7749;49.964;7.890;2022-08-05T03:42:38;23.00;99.90
15296;DHT22;7749;49.964;7.890;2022-08-05T03:45:19;23.00;99.90
15296;DHT22;7749;49.964;7.890;2022-08-05T03:47:50;23.00;99.90
15296;DHT22;7749;49.964;7.890;2022-08-05T03:50:31;23.00;99.90
15296;DHT22;7749;49.964;7.890;2022-08-05T03:53:04;23.10;99.90
15296;DHT22;7749;49.964;7.890;2022-08-05T03:56:02;23.10;99.90
15296;DHT22;7749;49.964;7.890;2022-08-05T03:58:45;23.10;99.90
15296;DHT22;7749;49.964;7.890;2022-08-05T04:01:18;23.10;99.90
15296;DHT22;7749;49.964;7.890;2022-08-05T04:03:49;23.00;99.90
15296;DHT22;7749;49.964;7.890;2022-08-05T04:06:37;23.00;99.90
15296;DHT22;7749;49.964;7.890;2022-08-05T04:09:15;22.90;99.90
15296;DHT22;7749;49.964;7.890;2022-08-05T04:11:54;22.90;99.90
15296;DHT22;7749;49.964;7.890;2022-08-05T04:14:26;22.90;99.90
15296;DHT22;7749;49.964;7.890;2022-08-05T04:17:01;22.80;99.90
15296;DHT22;7749;49.964;7.890;2022-08-05T04:19:29;22.90;99.90
15296;DHT22;7749;49.964;7.890;2022-08-05T04:21:58;23.00;99.90
15296;DHT22;7749;49.964;7.890;2022-08-05T04:24:43;23.10;99.90
15296;DHT22;7749;49.964;7.890;2022-08-05T04:27:19;23.20;99.90
15296;DHT22;7749;49.964;7.890;2022-08-05T04:30:08;23.30;97.90
15296;DHT22;7749;49.964;7.890;2022-08-05T04:32:36;23.30;98.30
15296;DHT22;7749;49.964;7.890;2022-08-05T04:35:06;23.40;95.70
15296;DHT22;7749;49.964;7.890;2022-08-05T04:37:47;23.50;99.90
15296;DHT22;7749;49.964;7.890;2022-08-05T04:40:33;23.50;99.90
15296;DHT22;7749;49.964;7.890;2022-08-05T04:43:04;23.50;99.90
15296;DHT22;7749;49.964;7.890;2022-08-05T04:45:37;23.50;99.90
15296;DHT22;7749;49.964;7.890;2022-08-05T04:48:21;23.50;99.90
15296;DHT22;7749;49.964;7.890;2022-08-05T04:50:55;23.60;99.90
15296;DHT22;7749;49.964;7.890;2022-08-05T04:53:38;23.70;99.90
15296;DHT22;7749;49.964;7.890;2022-08-05T04:56:07;23.70;99.90
15296;DHT22;7749;49.964;7.890;2022-08-05T04:58:55;23.70;99.90
15296;DHT22;7749;49.964;7.890;2022-08-05T05:01:22;23.40;99.90
15296;DHT22;7749;49.964;7.890;2022-08-05T05:04:10;23.20;99.90
15296;DHT22;7749;49.964;7.890;2022-08-05T05:06:38;23.30;99.90
15296;DHT22;7749;49.964;7.890;2022-08-05T05:09:19;23.40;99.90
15296;DHT22;7749;49.964;7.890;2022-08-05T05:11:48;23.40;99.90
15296;DHT22;7749;49.964;7.890;2022-08-05T05:14:23;23.20;99.90
15296;DHT22;7749;49.964;7.890;2022-08-05T05:16:59;23.10;99.90
15296;DHT22;7749;49.964;7.890;2022-08-05T05:19:27;23.10;99.90
15296;DHT22;7749;49.964;7.890;2022-08-05T05:22:11;23.00;99.90
15296;DHT22;7749;49.964;7.890;2022-08-05T05:24:53;23.00;99.90
15296;DHT22;7749;49.964;7.890;2022-08-05T05:31:38;22.80;99.90
15296;DHT22;7749;49.964;7.890;2022-08-05T05:34:04;22.80;99.90
15296;DHT22;7749;49.964;7.890;2022-08-05T05:36:32;22.90;99.90
15296;DHT22;7749;49.964;7.890;2022-08-05T05:39:03;22.90;99.90
15296;DHT22;7749;49.964;7.890;2022-08-05T05:41:36;22.90;99.90
15296;DHT22;7749;49.964;7.890;2022-08-05T05:44:06;23.00;99.90
15296;DHT22;7749;49.964;7.890;2022-08-05T05:46:54;23.10;99.90
15296;DHT22;7749;49.964;7.890;2022-08-05T05:49:24;23.10;99.90
15296;DHT22;7749;49.964;7.890;2022-08-05T05:51:53;23.00;99.90
15296;DHT22;7749;49.964;7.890;2022-08-05T05:54:21;22.90;99.90
15296;DHT22;7749;49.964;7.890;2022-08-05T05:57:09;22.90;99.90
15296;DHT22;7749;49.964;7.890;2022-08-05T05:59:45;22.90;99.90
15296;DHT22;7749;49.964;7.890;2022-08-05T06:02:15;22.90;99.90
15296;DHT22;7749;49.964;7.890;2022-08-05T06:04:59;22.80;99.90
15296;DHT22;7749;49.964;7.890;2022-08-05T06:07:27;23.00;99.90
15296;DHT22;7749;49.964;7.890;2022-08-05T06:10:09;23.10;99.90
15296;DHT22;7749;49.964;7.890;2022-08-05T06:12:38;23.30;99.90
15296;DHT22;7749;49.964;7.890;2022-08-05T06:15:09;23.40;99.90
15296;DHT22;7749;49.964;7.890;2022-08-05T06:17:50;23.40;99.90
15296;DHT22;7749;49.964;7.890;2022-08-05T06:20:20;23.50;99.90
15296;DHT22;7749;49.964;7.890;2022-08-05T06:22:48;23.70;99.90
15296;DHT22;7749;49.964;7.890;2022-08-05T06:25:16;23.90;99.90
15296;DHT22;7749;49.964;7.890;2022-08-05T06:28:04;24.10;99.90
15296;DHT22;7749;49.964;7.890;2022-08-05T06:30:39;24.20;99.90
15296;DHT22;7749;49.964;7.890;2022-08-05T06:33:07;24.20;99.90
15296;DHT22;7749;49.964;7.890;2022-08-05T06:35:37;24.20;99.90
15296;DHT22;7749;49.964;7.890;2022-08-05T06:38:25;24.10;99.90
15296;DHT22;7749;49.964;7.890;2022-08-05T06:41:04;24.00;99.90
15296;DHT22;7749;49.964;7.890;2022-08-05T06:43:35;23.90;99.90
15296;DHT22;7749;49.964;7.890;2022-08-05T06:46:23;23.90;99.90
15296;DHT22;7749;49.964;7.890;2022-08-05T06:48:57;23.90;99.90
15296;DHT22;7749;49.964;7.890;2022-08-05T06:51:28;24.00;99.90
15296;DHT22;7749;49.964;7.890;2022-08-05T06:53:59;24.10;99.90
15296;DHT22;7749;49.964;7.890;2022-08-05T06:56:29;24.20;99.90
15296;DHT22;7749;49.964;7.890;2022-08-05T06:59:02;24.10;99.90
15296;DHT22;7749;49.964;7.890;2022-08-05T07:01:38;24.10;99.90
15296;DHT22;7749;49.964;7.890;2022-08-05T07:04:08;24.20;99.90
15296;DHT22;7749;49.964;7.890;2022-08-05T07:06:36;24.30;99.90
15296;DHT22;7749;49.964;7.890;2022-08-05T07:09:04;24.50;99.90
15296;DHT22;7749;49.964;7.890;2022-08-05T07:11:33;24.60;99.90
15296;DHT22;7749;49.964;7.890;2022-08-05T07:14:04;24.70;99.90
15296;DHT22;7749;49.964;7.890;2022-08-05T07:16:59;24.80;99.90
15296;DHT22;7749;49.964;7.890;2022-08-05T07:19:50;24.90;99.90
15296;DHT22;7749;49.964;7.890;2022-08-05T07:22:40;24.80;99.90
15296;DHT22;7749;49.964;7.890;2022-08-05T07:25:09;24.80;99.90
15296;DHT22;7749;49.964;7.890;2022-08-05T07:27:53;24.90;93.20
15296;DHT22;7749;49.964;7.890;2022-08-05T07:30:36;25.10;87.20
15296;DHT22;7749;49.964;7.890;2022-08-05T07:33:09;25.20;79.30
15296;DHT22;7749;49.964;7.890;2022-08-05T07:35:44;25.00;75.60
15296;DHT22;7749;49.964;7.890;2022-08-05T07:38:33;24.90;73.40
15296;DHT22;7749;49.964;7.890;2022-08-05T07:41:14;24.80;83.80
15296;DHT22;7749;49.964;7.890;2022-08-05T07:44:07;24.80;92.40
15296;DHT22;7749;49.964;7.890;2022-08-05T07:46:41;24.80;93.90
15296;DHT22;7749;49.964;7.890;2022-08-05T07:49:15;24.80;94.50
15296;DHT22;7749;49.964;7.890;2022-08-05T07:51:45;24.80;88.40
15296;DHT22;7749;49.964;7.890;2022-08-05T07:54:24;24.80;91.00
15296;DHT22;7749;49.964;7.890;2022-08-05T07:56:58;24.90;82.30
15296;DHT22;7749;49.964;7.890;2022-08-05T07:59:46;24.90;74.00
15296;DHT22;7749;49.964;7.890;2022-08-05T08:02:15;25.00;66.50
15296;DHT22;7749;49.964;7.890;2022-08-05T08:04:45;25.00;57.90
15296;DHT22;7749;49.964;7.890;2022-08-05T08:07:18;25.10;43.70
15296;DHT22;7749;49.964;7.890;2022-08-05T08:09:51;25.20;27.60
15296;DHT22;7749;49.964;7.890;2022-08-05T08:12:22;25.30;16.60
15296;DHT22;7749;49.964;7.890;2022-08-05T08:15:09;25.30;11.60
15296;DHT22;7749;49.964;7.890;2022-08-05T08:17:45;25.30;8.90
15296;DHT22;7749;49.964;7.890;2022-08-05T08:20:20;25.40;1.00
15296;DHT22;7749;49.964;7.890;2022-08-05T08:23:09;25.40;1.00
15296;DHT22;7749;49.964;7.890;2022-08-05T08:25:47;25.30;1.80
15296;DHT22;7749;49.964;7.890;2022-08-05T08:28:29;25.50;1.00
15296;DHT22;7749;49.964;7.890;2022-08-05T08:31:17;25.80;1.00
15296;DHT22;7749;49.964;7.890;2022-08-05T08:33:45;26.10;1.00
15296;DHT22;7749;49.964;7.890;2022-08-05T08:36:19;26.10;1.00
15296;DHT22;7749;49.964;7.890;2022-08-05T08:39:07;26.20;1.00
15296;DHT22;7749;49.964;7.890;2022-08-05T08:41:46;26.20;1.00
15296;DHT22;7749;49.964;7.890;2022-08-05T08:44:30;26.20;1.00
15296;DHT22;7749;49.964;7.890;2022-08-05T08:47:24;26.30;1.00
15296;DHT22;7749;49.964;7.890;2022-08-05T08:50:12;26.10;1.00
15296;DHT22;7749;49.964;7.890;2022-08-05T08:53:04;26.00;1.00
15296;DHT22;7749;49.964;7.890;2022-08-05T08:55:39;26.00;1.00
15296;DHT22;7749;49.964;7.890;2022-08-05T08:58:28;26.10;1.00
15296;DHT22;7749;49.964;7.890;2022-08-05T09:01:11;26.10;1.00
15296;DHT22;7749;49.964;7.890;2022-08-05T09:03:48;25.70;1.00
15296;DHT22;7749;49.964;7.890;2022-08-05T09:06:25;24.90;1.00
15296;DHT22;7749;49.964;7.890;2022-08-05T09:09:01;24.50;1.00
15296;DHT22;7749;49.964;7.890;2022-08-05T09:11:31;24.20;1.00
15296;DHT22;7749;49.964;7.890;2022-08-05T09:14:19;24.40;1.00
15296;DHT22;7749;49.964;7.890;2022-08-05T09:17:08;24.50;1.00
15296;DHT22;7749;49.964;7.890;2022-08-05T09:19:58;24.80;1.00
15296;DHT22;7749;49.964;7.890;2022-08-05T09:23:07;25.10;1.00
15296;DHT22;7749;49.964;7.890;2022-08-05T09:25:49;25.50;1.00
15296;DHT22;7749;49.964;7.890;2022-08-05T09:28:33;25.70;1.00
15296;DHT22;7749;49.964;7.890;2022-08-05T09:31:05;25.90;1.00
15296;DHT22;7749;49.964;7.890;2022-08-05T09:34:02;26.00;1.00
15296;DHT22;7749;49.964;7.890;2022-08-05T09:36:42;26.00;1.00
15296;DHT22;7749;49.964;7.890;2022-08-05T09:39:23;25.90;1.00
15296;DHT22;7749;49.964;7.890;2022-08-05T09:42:39;25.90;1.00
15296;DHT22;7749;49.964;7.890;2022-08-05T09:45:08;26.00;1.00
15296;DHT22;7749;49.964;7.890;2022-08-05T09:47:57;26.10;1.00
15296;DHT22;7749;49.964;7.890;2022-08-05T09:50:37;25.90;1.00
15296;DHT22;7749;49.964;7.890;2022-08-05T09:53:11;26.00;1.00
15296;DHT22;7749;49.964;7.890;2022-08-05T09:56:00;26.20;1.00
15296;DHT22;7749;49.964;7.890;2022-08-05T09:58:40;26.40;1.00
15296;DHT22;7749;49.964;7.890;2022-08-05T10:01:11;26.60;1.00
15296;DHT22;7749;49.964;7.890;2022-08-05T10:04:00;26.70;1.00
15296;DHT22;7749;49.964;7.890;2022-08-05T10:06:54;26.90;1.00
15296;DHT22;7749;49.964;7.890;2022-08-05T10:09:29;26.80;1.00
15296;DHT22;7749;49.964;7.890;2022-08-05T10:12:12;26.70;1.00
15296;DHT22;7749;49.964;7.890;2022-08-05T10:15:13;26.40;1.00
15296;DHT22;7749;49.964;7.890;2022-08-05T10:18:17;25.80;1.00
15296;DHT22;7749;49.964;7.890;2022-08-05T10:20:52;25.90;1.00
15296;DHT22;7749;49.964;7.890;2022-08-05T10:23:34;25.20;1.00
15296;DHT22;7749;49.964;7.890;2022-08-05T10:26:23;25.50;1.00
15296;DHT22;7749;49.964;7.890;2022-08-05T10:29:00;25.40;1.00
15296;DHT22;7749;49.964;7.890;2022-08-05T10:31:29;25.30;1.00
15296;DHT22;7749;49.964;7.890;2022-08-05T10:34:19;25.50;1.00
15296;DHT22;7749;49.964;7.890;2022-08-05T10:36:58;25.10;1.00
15296;DHT22;7749;49.964;7.890;2022-08-05T10:39:34;24.70;1.00
15296;DHT22;7749;49.964;7.890;2022-08-05T10:42:23;24.80;1.00
15296;DHT22;7749;49.964;7.890;2022-08-05T10:45:05;24.80;1.00
15296;DHT22;7749;49.964;7.890;2022-08-05T10:47:53;25.00;1.00
15296;DHT22;7749;49.964;7.890;2022-08-05T10:51:01;25.40;1.00
15296;DHT22;7749;49.964;7.890;2022-08-05T10:53:36;25.40;1.00
15296;DHT22;7749;49.964;7.890;2022-08-05T10:56:13;25.40;1.00
15296;DHT22;7749;49.964;7.890;2022-08-05T11:01:40;26.30;1.00
15296;DHT22;7749;49.964;7.890;2022-08-05T11:04:30;26.40;1.00
15296;DHT22;7749;49.964;7.890;2022-08-05T11:07:05;26.50;1.00
15296;DHT22;7749;49.964;7.890;2022-08-05T11:09:43;26.70;1.00
15296;DHT22;7749;49.964;7.890;2022-08-05T11:15:06;28.60;99.90
15296;DHT22;7749;49.964;7.890;2022-08-05T11:17:51;28.90;99.90
15296;DHT22;7749;49.964;7.890;2022-08-05T11:20:46;29.50;99.90
15296;DHT22;7749;49.964;7.890;2022-08-05T11:23:49;30.00;19.40
15296;DHT22;7749;49.964;7.890;2022-08-05T11:27:29;30.80;1.00
15296;DHT22;7749;49.964;7.890;2022-08-05T11:30:17;32.80;21.70
15296;DHT22;7749;49.964;7.890;2022-08-05T11:32:45;33.70;99.90
15296;DHT22;7749;49.964;7.890;2022-08-05T11:35:52;33.80;43.60
15296;DHT22;7749;49.964;7.890;2022-08-05T11:41:21;35.40;1.00
15296;DHT22;7749;49.964;7.890;2022-08-05T11:44:11;35.50;1.00
15296;DHT22;7749;49.964;7.890;2022-08-05T11:47:02;35.60;1.00
15296;DHT22;7749;49.964;7.890;2022-08-05T11:49:57;35.60;1.00
15296;DHT22;7749;49.964;7.890;2022-08-05T11:52:26;35.40;1.00
15296;DHT22;7749;49.964;7.890;2022-08-05T11:54:57;36.10;1.00
15296;DHT22;7749;49.964;7.890;2022-08-05T11:57:34;35.90;1.00
15296;DHT22;7749;49.964;7.890;2022-08-05T12:00:29;36.40;1.00
15296;DHT22;7749;49.964;7.890;2022-08-05T12:03:12;35.90;1.00
15296;DHT22;7749;49.964;7.890;2022-08-05T12:05:42;33.00;99.90
15296;DHT22;7749;49.964;7.890;2022-08-05T12:08:10;30.20;1.00
15296;DHT22;7749;49.964;7.890;2022-08-05T12:10:45;29.30;1.00
15296;DHT22;7749;49.964;7.890;2022-08-05T12:13:18;28.20;99.90
15296;DHT22;7749;49.964;7.890;2022-08-05T12:16:06;27.80;1.00
15296;DHT22;7749;49.964;7.890;2022-08-05T12:18:43;28.00;99.90
15296;DHT22;7749;49.964;7.890;2022-08-05T12:21:24;28.30;99.90
15296;DHT22;7749;49.964;7.890;2022-08-05T12:26:41;28.20;58.00
15296;DHT22;7749;49.964;7.890;2022-08-05T12:29:16;28.00;99.90
15296;DHT22;7749;49.964;7.890;2022-08-05T12:31:59;27.70;99.90
15296;DHT22;7749;49.964;7.890;2022-08-05T12:34:32;27.50;1.00
15296;DHT22;7749;49.964;7.890;2022-08-05T12:37:09;27.40;1.00
15296;DHT22;7749;49.964;7.890;2022-08-05T12:39:44;27.60;1.00
15296;DHT22;7749;49.964;7.890;2022-08-05T12:42:19;28.20;1.00
15296;DHT22;7749;49.964;7.890;2022-08-05T12:44:47;30.80;1.00
15296;DHT22;7749;49.964;7.890;2022-08-05T12:47:28;33.50;99.90
15296;DHT22;7749;49.964;7.890;2022-08-05T12:49:58;35.60;1.00
15296;DHT22;7749;49.964;7.890;2022-08-05T12:52:35;34.50;1.00
15296;DHT22;7749;49.964;7.890;2022-08-05T12:55:23;32.80;1.00
15296;DHT22;7749;49.964;7.890;2022-08-05T12:57:54;29.30;1.00
15296;DHT22;7749;49.964;7.890;2022-08-05T13:00:44;27.60;99.90
15296;DHT22;7749;49.964;7.890;2022-08-05T13:03:38;26.00;1.00
15296;DHT22;7749;49.964;7.890;2022-08-05T13:06:14;25.30;1.00
15296;DHT22;7749;49.964;7.890;2022-08-05T13:08:45;25.00;1.00
15296;DHT22;7749;49.964;7.890;2022-08-05T13:11:28;24.60;38.10
15296;DHT22;7749;49.964;7.890;2022-08-05T13:14:21;24.60;63.50
15296;DHT22;7749;49.964;7.890;2022-08-05T13:22:36;23.70;93.80
15296;DHT22;7749;49.964;7.890;2022-08-05T13:25:08;23.70;93.80
15296;DHT22;7749;49.964;7.890;2022-08-05T13:28:07;23.50;94.30
15296;DHT22;7749;49.964;7.890;2022-08-05T13:30:54;23.40;98.60
15296;DHT22;7749;49.964;7.890;2022-08-05T13:33:24;23.30;91.30
15296;DHT22;7749;49.964;7.890;2022-08-05T13:36:12;23.20;74.80
15296;DHT22;7749;49.964;7.890;2022-08-05T13:38:41;23.10;63.80
15296;DHT22;7749;49.964;7.890;2022-08-05T13:41:09;23.20;50.70
15296;DHT22;7749;49.964;7.890;2022-08-05T13:43:38;23.50;67.30
15296;DHT22;7749;49.964;7.890;2022-08-05T13:46:27;23.80;1.00
15296;DHT22;7749;49.964;7.890;2022-08-05T13:49:15;24.60;1.00
15296;DHT22;7749;49.964;7.890;2022-08-05T13:51:43;25.00;1.00
15296;DHT22;7749;49.964;7.890;2022-08-05T13:54:14;25.80;1.00
15296;DHT22;7749;49.964;7.890;2022-08-05T13:56:48;26.50;1.00
15296;DHT22;7749;49.964;7.890;2022-08-05T13:59:20;27.70;99.90
15296;DHT22;7749;49.964;7.890;2022-08-05T14:01:53;27.60;99.90
15296;DHT22;7749;49.964;7.890;2022-08-05T14:04:27;26.70;1.00
15296;DHT22;7749;49.964;7.890;2022-08-05T14:07:23;25.50;1.00
15296;DHT22;7749;49.964;7.890;2022-08-05T14:10:14;24.70;1.00
15296;DHT22;7749;49.964;7.890;2022-08-05T14:12:55;24.10;1.00
15296;DHT22;7749;49.964;7.890;2022-08-05T14:15:24;23.70;1.00
15296;DHT22;7749;49.964;7.890;2022-08-05T14:18:15;23.60;1.00
15296;DHT22;7749;49.964;7.890;2022-08-05T14:20:50;23.50;1.00
15296;DHT22;7749;49.964;7.890;2022-08-05T14:23:22;23.70;1.00
15296;DHT22;7749;49.964;7.890;2022-08-05T14:25:55;24.00;1.00
15296;DHT22;7749;49.964;7.890;2022-08-05T14:28:27;24.80;1.00
15296;DHT22;7749;49.964;7.890;2022-08-05T14:30:56;24.70;1.00
15296;DHT22;7749;49.964;7.890;2022-08-05T14:33:25;24.50;1.00
15296;DHT22;7749;49.964;7.890;2022-08-05T14:35:53;24.50;1.00
15296;DHT22;7749;49.964;7.890;2022-08-05T14:38:22;24.70;1.00
15296;DHT22;7749;49.964;7.890;2022-08-05T14:41:03;24.50;1.00
15296;DHT22;7749;49.964;7.890;2022-08-05T14:43:34;24.10;1.00
15296;DHT22;7749;49.964;7.890;2022-08-05T14:46:24;24.00;1.00
15296;DHT22;7749;49.964;7.890;2022-08-05T14:49:00;23.70;1.00
15296;DHT22;7749;49.964;7.890;2022-08-05T14:51:38;23.20;1.00
15296;DHT22;7749;49.964;7.890;2022-08-05T14:54:26;23.00;1.00
15296;DHT22;7749;49.964;7.890;2022-08-05T14:57:00;23.30;1.00
15296;DHT22;7749;49.964;7.890;2022-08-05T14:59:36;23.50;1.00
15296;DHT22;7749;49.964;7.890;2022-08-05T15:02:04;23.50;1.00
15296;DHT22;7749;49.964;7.890;2022-08-05T15:04:42;23.70;1.00
15296;DHT22;7749;49.964;7.890;2022-08-05T15:07:16;23.50;1.00
15296;DHT22;7749;49.964;7.890;2022-08-05T15:10:05;23.70;1.00
15296;DHT22;7749;49.964;7.890;2022-08-05T15:12:37;23.80;1.00
15296;DHT22;7749;49.964;7.890;2022-08-05T15:15:26;24.10;1.00
15296;DHT22;7749;49.964;7.890;2022-08-05T15:18:17;23.80;1.00
15296;DHT22;7749;49.964;7.890;2022-08-05T15:20:45;23.70;1.00
15296;DHT22;7749;49.964;7.890;2022-08-05T15:23:12;23.50;1.00
15296;DHT22;7749;49.964;7.890;2022-08-05T15:25:41;23.60;1.00
15296;DHT22;7749;49.964;7.890;2022-08-05T15:28:21;23.50;1.00
15296;DHT22;7749;49.964;7.890;2022-08-05T15:30:54;23.30;1.00
15296;DHT22;7749;49.964;7.890;2022-08-05T15:33:22;23.20;1.00
15296;DHT22;7749;49.964;7.890;2022-08-05T15:36:13;23.40;1.00
15296;DHT22;7749;49.964;7.890;2022-08-05T15:39:00;23.60;1.00
15296;DHT22;7749;49.964;7.890;2022-08-05T15:41:47;24.10;1.00
15296;DHT22;7749;49.964;7.890;2022-08-05T15:44:26;24.10;1.00
15296;DHT22;7749;49.964;7.890;2022-08-05T15:47:03;24.10;1.00
15296;DHT22;7749;49.964;7.890;2022-08-05T15:49:34;23.80;1.00
15296;DHT22;7749;49.964;7.890;2022-08-05T15:52:21;23.90;1.00
15296;DHT22;7749;49.964;7.890;2022-08-05T15:55:11;24.00;1.00
15296;DHT22;7749;49.964;7.890;2022-08-05T15:57:42;23.80;1.00
15296;DHT22;7749;49.964;7.890;2022-08-05T16:00:12;23.60;1.00
15296;DHT22;7749;49.964;7.890;2022-08-05T16:02:43;23.60;1.00
15296;DHT22;7749;49.964;7.890;2022-08-05T16:05:14;23.70;1.00
15296;DHT22;7749;49.964;7.890;2022-08-05T16:07:54;23.70;1.00
15296;DHT22;7749;49.964;7.890;2022-08-05T16:10:23;23.70;1.00
15296;DHT22;7749;49.964;7.890;2022-08-05T16:13:10;23.80;1.00
15296;DHT22;7749;49.964;7.890;2022-08-05T16:16:04;23.90;1.00
15296;DHT22;7749;49.964;7.890;2022-08-05T16:19:00;23.90;1.00
15296;DHT22;7749;49.964;7.890;2022-08-05T16:22:05;24.30;1.00
15296;DHT22;7749;49.964;7.890;2022-08-05T16:24:37;24.40;1.00
15296;DHT22;7749;49.964;7.890;2022-08-05T16:27:18;24.50;1.00
15296;DHT22;7749;49.964;7.890;2022-08-05T16:29:58;24.60;99.90
15296;DHT22;7749;49.964;7.890;2022-08-05T16:32:26;24.40;99.90
15296;DHT22;7749;49.964;7.890;2022-08-05T16:34:56;24.40;99.90
15296;DHT22;7749;49.964;7.890;2022-08-05T16:37:25;24.50;1.00
15296;DHT22;7749;49.964;7.890;2022-08-05T16:40:16;24.50;1.00
15296;DHT22;7749;49.964;7.890;2022-08-05T16:42:55;24.70;1.00
15296;DHT22;7749;49.964;7.890;2022-08-05T16:45:23;24.60;99.90
15296;DHT22;7749;49.964;7.890;2022-08-05T16:48:11;24.70;1.00
15296;DHT22;7749;49.964;7.890;2022-08-05T16:50:52;25.00;99.90
15296;DHT22;7749;49.964;7.890;2022-08-05T16:53:23;25.00;99.90
15296;DHT22;7749;49.964;7.890;2022-08-05T16:55:59;25.20;1.00
15296;DHT22;7749;49.964;7.890;2022-08-05T16:58:26;25.40;99.90
15296;DHT22;7749;49.964;7.890;2022-08-05T17:00:54;25.60;1.00
15296;DHT22;7749;49.964;7.890;2022-08-05T17:03:22;25.80;39.30
15296;DHT22;7749;49.964;7.890;2022-08-05T17:05:52;26.20;99.90
15296;DHT22;7749;49.964;7.890;2022-08-05T17:08:29;26.30;1.00
15296;DHT22;7749;49.964;7.890;2022-08-05T17:11:21;26.30;1.00
15296;DHT22;7749;49.964;7.890;2022-08-05T17:13:53;26.60;1.00
15296;DHT22;7749;49.964;7.890;2022-08-05T17:16:34;26.80;1.00
15296;DHT22;7749;49.964;7.890;2022-08-05T17:19:08;26.60;1.00
15296;DHT22;7749;49.964;7.890;2022-08-05T17:21:37;26.50;1.00
15296;DHT22;7749;49.964;7.890;2022-08-05T17:24:08;25.90;1.00
15296;DHT22;7749;49.964;7.890;2022-08-05T17:26:59;25.80;1.00
15296;DHT22;7749;49.964;7.890;2022-08-05T17:29:28;26.60;1.00
15296;DHT22;7749;49.964;7.890;2022-08-05T17:32:13;27.00;99.90
15296;DHT22;7749;49.964;7.890;2022-08-05T17:34:44;27.30;78.30
15296;DHT22;7749;49.964;7.890;2022-08-05T17:37:16;28.00;1.00